Terminal Aerodrome Forecast
Issued by NWS

Home | Current Version | Previous Version | Text Only | Print | Product List | Glossary On
Versions: 1 2 3 4 5 6 7 8 9 10 11 12 13 14 15 16
281
FTUS43 KMQT 081721
TAFSAW
TAF
KSAW 081721Z 0818/0918 34012G18KT 4SM -SHSN OVC011
     FM082300 33011G17KT 4SM -SHSN OVC022
     FM090400 33011G16KT 3SM -SHSN OVC019
     FM090600 33011G17KT 2SM -SHSN OVC012
     FM091500 35015G21KT 1SM -SHSN BLSN OVC012=

USA.gov is the U.S. government's official web portal to all federal, state and local government web resources and services.